sensor_id;sensor_type;location;lat;lon;timestamp;P1;durP1;ratioP1;P2;durP2;ratioP2
31674;SDS011;18276;45.520;11.018;2023-05-23T17:16:42;18.75;;;9.30;;
31674;SDS011;18276;45.520;11.018;2023-05-23T17:19:09;11.43;;;8.23;;
31674;SDS011;18276;45.520;11.018;2023-05-23T17:21:37;11.02;;;7.72;;
31674;SDS011;18276;45.520;11.018;2023-05-23T17:24:04;11.48;;;8.25;;
31674;SDS011;18276;45.520;11.018;2023-05-23T17:26:31;8.65;;;7.75;;
31674;SDS011;18276;45.520;11.018;2023-05-23T17:28:58;13.93;;;8.02;;
31674;SDS011;18276;45.520;11.018;2023-05-23T17:31:25;14.40;;;8.68;;
31674;SDS011;18276;45.520;11.018;2023-05-23T17:33:55;9.90;;;7.53;;
31674;SDS011;18276;45.520;11.018;2023-05-23T17:36:22;12.02;;;8.05;;
31674;SDS011;18276;45.520;11.018;2023-05-23T17:38:50;10.13;;;8.15;;
31674;SDS011;18276;45.520;11.018;2023-05-23T17:41:22;11.52;;;8.75;;
31674;SDS011;18276;45.520;11.018;2023-05-23T17:43:49;15.75;;;9.65;;
31674;SDS011;18276;45.520;11.018;2023-05-23T17:46:16;13.43;;;9.23;;
31674;SDS011;18276;45.520;11.018;2023-05-23T17:48:43;12.65;;;9.82;;
31674;SDS011;18276;45.520;11.018;2023-05-23T17:51:13;11.52;;;8.98;;
31674;SDS011;18276;45.520;11.018;2023-05-23T17:53:41;12.57;;;9.80;;
31674;SDS011;18276;45.520;11.018;2023-05-23T17:56:08;13.25;;;8.95;;
31674;SDS011;18276;45.520;11.018;2023-05-23T17:58:36;12.45;;;9.75;;
31674;SDS011;18276;45.520;11.018;2023-05-23T18:01:05;15.52;;;10.23;;
31674;SDS011;18276;45.520;11.018;2023-05-23T18:03:33;16.58;;;10.00;;
31674;SDS011;18276;45.520;11.018;2023-05-23T18:06:00;12.63;;;9.90;;
31674;SDS011;18276;45.520;11.018;2023-05-23T18:08:27;13.60;;;10.13;;
31674;SDS011;18276;45.520;11.018;2023-05-23T18:10:54;14.05;;;10.13;;
31674;SDS011;18276;45.520;11.018;2023-05-23T18:13:21;12.18;;;9.93;;
31674;SDS011;18276;45.520;11.018;2023-05-23T18:15:48;14.32;;;10.25;;
31674;SDS011;18276;45.520;11.018;2023-05-23T18:18:15;13.57;;;10.00;;
31674;SDS011;18276;45.520;11.018;2023-05-23T18:20:43;13.73;;;11.13;;
31674;SDS011;18276;45.520;11.018;2023-05-23T18:23:10;13.32;;;9.90;;
31674;SDS011;18276;45.520;11.018;2023-05-23T18:25:37;15.60;;;9.68;;
31674;SDS011;18276;45.520;11.018;2023-05-23T18:28:04;13.95;;;10.05;;
31674;SDS011;18276;45.520;11.018;2023-05-23T18:30:31;21.80;;;10.52;;
31674;SDS011;18276;45.520;11.018;2023-05-23T18:32:59;13.57;;;9.85;;
31674;SDS011;18276;45.520;11.018;2023-05-23T18:35:26;13.80;;;10.00;;
31674;SDS011;18276;45.520;11.018;2023-05-23T18:37:53;17.77;;;10.50;;
31674;SDS011;18276;45.520;11.018;2023-05-23T18:40:20;11.93;;;9.63;;
31674;SDS011;18276;45.520;11.018;2023-05-23T18:42:49;15.90;;;9.45;;
31674;SDS011;18276;45.520;11.018;2023-05-23T18:45:17;16.38;;;9.55;;
31674;SDS011;18276;45.520;11.018;2023-05-23T18:47:44;17.67;;;9.80;;
31674;SDS011;18276;45.520;11.018;2023-05-23T18:50:11;16.52;;;10.07;;
31674;SDS011;18276;45.520;11.018;2023-05-23T18:52:39;11.10;;;9.55;;
31674;SDS011;18276;45.520;11.018;2023-05-23T18:55:07;14.55;;;8.90;;
31674;SDS011;18276;45.520;11.018;2023-05-23T18:57:35;15.65;;;9.77;;
31674;SDS011;18276;45.520;11.018;2023-05-23T19:00:02;19.33;;;10.57;;
31674;SDS011;18276;45.520;11.018;2023-05-23T19:02:30;16.77;;;9.82;;
31674;SDS011;18276;45.520;11.018;2023-05-23T19:04:57;13.80;;;10.02;;
31674;SDS011;18276;45.520;11.018;2023-05-23T19:07:24;13.18;;;9.80;;
31674;SDS011;18276;45.520;11.018;2023-05-23T19:09:51;17.02;;;10.05;;
31674;SDS011;18276;45.520;11.018;2023-05-23T19:12:18;14.20;;;9.80;;
31674;SDS011;18276;45.520;11.018;2023-05-23T19:14:45;16.00;;;9.73;;
31674;SDS011;18276;45.520;11.018;2023-05-23T19:17:12;16.83;;;10.98;;
31674;SDS011;18276;45.520;11.018;2023-05-23T19:19:39;14.63;;;10.63;;
31674;SDS011;18276;45.520;11.018;2023-05-23T19:22:07;21.08;;;10.77;;
31674;SDS011;18276;45.520;11.018;2023-05-23T19:24:34;15.20;;;10.23;;
31674;SDS011;18276;45.520;11.018;2023-05-23T19:27:02;13.73;;;10.32;;
31674;SDS011;18276;45.520;11.018;2023-05-23T19:29:30;14.98;;;11.30;;
31674;SDS011;18276;45.520;11.018;2023-05-23T19:31:57;15.20;;;10.70;;
31674;SDS011;18276;45.520;11.018;2023-05-23T19:34:24;16.63;;;11.25;;
31674;SDS011;18276;45.520;11.018;2023-05-23T19:36:52;17.90;;;10.68;;
31674;SDS011;18276;45.520;11.018;2023-05-23T19:39:19;17.27;;;10.50;;
31674;SDS011;18276;45.520;11.018;2023-05-23T19:41:47;14.35;;;10.55;;
31674;SDS011;18276;45.520;11.018;2023-05-23T19:44:14;17.23;;;11.05;;
31674;SDS011;18276;45.520;11.018;2023-05-23T19:46:41;13.95;;;10.73;;
31674;SDS011;18276;45.520;11.018;2023-05-23T19:49:08;19.23;;;11.90;;
31674;SDS011;18276;45.520;11.018;2023-05-23T19:51:36;17.67;;;12.00;;
31674;SDS011;18276;45.520;11.018;2023-05-23T19:54:03;24.15;;;12.43;;
31674;SDS011;18276;45.520;11.018;2023-05-23T19:56:30;16.48;;;11.00;;
31674;SDS011;18276;45.520;11.018;2023-05-23T19:58:59;13.73;;;10.88;;
31674;SDS011;18276;45.520;11.018;2023-05-23T20:01:26;17.38;;;11.10;;
31674;SDS011;18276;45.520;11.018;2023-05-23T20:03:56;17.05;;;10.60;;
31674;SDS011;18276;45.520;11.018;2023-05-23T20:06:23;18.67;;;11.65;;
31674;SDS011;18276;45.520;11.018;2023-05-23T20:08:50;12.55;;;11.23;;
31674;SDS011;18276;45.520;11.018;2023-05-23T20:11:17;18.77;;;11.88;;
31674;SDS011;18276;45.520;11.018;2023-05-23T20:13:44;18.02;;;11.52;;
31674;SDS011;18276;45.520;11.018;2023-05-23T20:16:11;17.65;;;11.63;;
31674;SDS011;18276;45.520;11.018;2023-05-23T20:18:40;20.02;;;12.27;;
31674;SDS011;18276;45.520;11.018;2023-05-23T20:21:07;16.65;;;11.23;;
31674;SDS011;18276;45.520;11.018;2023-05-23T20:23:34;17.77;;;11.48;;
31674;SDS011;18276;45.520;11.018;2023-05-23T20:26:02;17.58;;;12.15;;
31674;SDS011;18276;45.520;11.018;2023-05-23T20:28:29;19.98;;;11.60;;
31674;SDS011;18276;45.520;11.018;2023-05-23T20:30:56;17.38;;;11.70;;
31674;SDS011;18276;45.520;11.018;2023-05-23T20:33:23;15.52;;;11.18;;
31674;SDS011;18276;45.520;11.018;2023-05-23T20:35:50;14.90;;;11.10;;
31674;SDS011;18276;45.520;11.018;2023-05-23T20:38:17;21.20;;;12.32;;
31674;SDS011;18276;45.520;11.018;2023-05-23T20:40:45;16.73;;;11.65;;
31674;SDS011;18276;45.520;11.018;2023-05-23T20:43:18;16.83;;;10.93;;
31674;SDS011;18276;45.520;11.018;2023-05-23T20:45:45;16.58;;;11.90;;
31674;SDS011;18276;45.520;11.018;2023-05-23T20:48:13;14.60;;;12.20;;
31674;SDS011;18276;45.520;11.018;2023-05-23T20:50:40;19.42;;;11.90;;
31674;SDS011;18276;45.520;11.018;2023-05-23T20:53:09;16.05;;;11.20;;
31674;SDS011;18276;45.520;11.018;2023-05-23T20:55:36;18.35;;;11.52;;
31674;SDS011;18276;45.520;11.018;2023-05-23T20:58:03;17.00;;;12.48;;
31674;SDS011;18276;45.520;11.018;2023-05-23T21:00:32;13.80;;;11.45;;
31674;SDS011;18276;45.520;11.018;2023-05-23T21:02:59;18.48;;;12.10;;
31674;SDS011;18276;45.520;11.018;2023-05-23T21:05:27;16.58;;;11.38;;
31674;SDS011;18276;45.520;11.018;2023-05-23T21:07:54;15.50;;;11.43;;
31674;SDS011;18276;45.520;11.018;2023-05-23T21:10:21;19.08;;;11.98;;
31674;SDS011;18276;45.520;11.018;2023-05-23T21:12:48;19.73;;;11.90;;
31674;SDS011;18276;45.520;11.018;2023-05-23T21:15:16;16.85;;;11.68;;
31674;SDS011;18276;45.520;11.018;2023-05-23T21:17:44;18.70;;;12.32;;
31674;SDS011;18276;45.520;11.018;2023-05-23T21:20:11;14.80;;;12.68;;
31674;SDS011;18276;45.520;11.018;2023-05-23T21:22:39;17.38;;;12.43;;
31674;SDS011;18276;45.520;11.018;2023-05-23T21:25:06;18.05;;;12.23;;
31674;SDS011;18276;45.520;11.018;2023-05-23T21:27:33;22.27;;;12.30;;
31674;SDS011;18276;45.520;11.018;2023-05-23T21:30:01;19.20;;;11.75;;
31674;SDS011;18276;45.520;11.018;2023-05-23T21:32:28;20.95;;;12.07;;
31674;SDS011;18276;45.520;11.018;2023-05-23T21:34:55;20.08;;;12.07;;
31674;SDS011;18276;45.520;11.018;2023-05-23T21:37:23;20.88;;;12.55;;
31674;SDS011;18276;45.520;11.018;2023-05-23T21:39:50;16.10;;;11.85;;
31674;SDS011;18276;45.520;11.018;2023-05-23T21:42:18;16.48;;;12.13;;
31674;SDS011;18276;45.520;11.018;2023-05-23T21:44:46;19.50;;;12.07;;
31674;SDS011;18276;45.520;11.018;2023-05-23T21:47:13;21.23;;;11.93;;
31674;SDS011;18276;45.520;11.018;2023-05-23T21:49:40;18.45;;;11.07;;
31674;SDS011;18276;45.520;11.018;2023-05-23T21:52:07;18.55;;;12.43;;
31674;SDS011;18276;45.520;11.018;2023-05-23T21:54:34;19.73;;;11.43;;
31674;SDS011;18276;45.520;11.018;2023-05-23T21:57:01;17.67;;;11.10;;
31674;SDS011;18276;45.520;11.018;2023-05-23T21:59:28;21.67;;;12.20;;
31674;SDS011;18276;45.520;11.018;2023-05-23T22:01:55;16.52;;;11.63;;
31674;SDS011;18276;45.520;11.018;2023-05-23T22:04:23;15.45;;;10.95;;
31674;SDS011;18276;45.520;11.018;2023-05-23T22:06:50;18.08;;;11.50;;
31674;SDS011;18276;45.520;11.018;2023-05-23T22:09:17;16.77;;;11.13;;
31674;SDS011;18276;45.520;11.018;2023-05-23T22:11:44;14.93;;;11.02;;
31674;SDS011;18276;45.520;11.018;2023-05-23T22:14:11;15.13;;;10.73;;
31674;SDS011;18276;45.520;11.018;2023-05-23T22:16:38;16.88;;;11.35;;
31674;SDS011;18276;45.520;11.018;2023-05-23T22:19:06;19.77;;;11.48;;
31674;SDS011;18276;45.520;11.018;2023-05-23T22:21:35;18.65;;;11.27;;
31674;SDS011;18276;45.520;11.018;2023-05-23T22:24:03;13.88;;;10.65;;
31674;SDS011;18276;45.520;11.018;2023-05-23T22:26:30;14.63;;;11.77;;
31674;SDS011;18276;45.520;11.018;2023-05-23T22:28:57;16.58;;;10.65;;
31674;SDS011;18276;45.520;11.018;2023-05-23T22:31:24;14.30;;;11.13;;
31674;SDS011;18276;45.520;11.018;2023-05-23T22:33:54;18.15;;;11.32;;
31674;SDS011;18276;45.520;11.018;2023-05-23T22:36:21;16.48;;;10.32;;
31674;SDS011;18276;45.520;11.018;2023-05-23T22:38:48;14.63;;;10.77;;
31674;SDS011;18276;45.520;11.018;2023-05-23T22:41:16;18.95;;;11.23;;
31674;SDS011;18276;45.520;11.018;2023-05-23T22:43:43;16.27;;;11.05;;
31674;SDS011;18276;45.520;11.018;2023-05-23T22:46:10;14.82;;;9.98;;
31674;SDS011;18276;45.520;11.018;2023-05-23T22:48:38;13.85;;;10.10;;
31674;SDS011;18276;45.520;11.018;2023-05-23T22:51:05;16.98;;;11.07;;
31674;SDS011;18276;45.520;11.018;2023-05-23T22:53:34;13.77;;;10.68;;
31674;SDS011;18276;45.520;11.018;2023-05-23T22:56:01;11.60;;;10.40;;
31674;SDS011;18276;45.520;11.018;2023-05-23T22:58:28;13.85;;;10.27;;
31674;SDS011;18276;45.520;11.018;2023-05-23T23:00:55;19.95;;;10.80;;
31674;SDS011;18276;45.520;11.018;2023-05-23T23:03:22;15.57;;;10.00;;
31674;SDS011;18276;45.520;11.018;2023-05-23T23:05:49;15.10;;;9.45;;
31674;SDS011;18276;45.520;11.018;2023-05-23T23:08:16;17.88;;;10.60;;
31674;SDS011;18276;45.520;11.018;2023-05-23T23:10:44;15.27;;;10.23;;
31674;SDS011;18276;45.520;11.018;2023-05-23T23:13:11;15.55;;;10.10;;
31674;SDS011;18276;45.520;11.018;2023-05-23T23:15:41;18.05;;;10.75;;
31674;SDS011;18276;45.520;11.018;2023-05-23T23:18:09;17.05;;;10.82;;
31674;SDS011;18276;45.520;11.018;2023-05-23T23:20:39;16.55;;;10.90;;
31674;SDS011;18276;45.520;11.018;2023-05-23T23:23:07;15.32;;;10.35;;
31674;SDS011;18276;45.520;11.018;2023-05-23T23:25:34;15.70;;;10.55;;
31674;SDS011;18276;45.520;11.018;2023-05-23T23:28:02;15.57;;;10.07;;
31674;SDS011;18276;45.520;11.018;2023-05-23T23:30:29;16.60;;;10.32;;
31674;SDS011;18276;45.520;11.018;2023-05-23T23:32:56;15.38;;;11.15;;
31674;SDS011;18276;45.520;11.018;2023-05-23T23:35:23;17.40;;;11.25;;
31674;SDS011;18276;45.520;11.018;2023-05-23T23:37:50;15.02;;;10.70;;
31674;SDS011;18276;45.520;11.018;2023-05-23T23:40:17;15.38;;;10.95;;
31674;SDS011;18276;45.520;11.018;2023-05-23T23:42:44;15.27;;;10.98;;
31674;SDS011;18276;45.520;11.018;2023-05-23T23:45:11;17.75;;;11.30;;
31674;SDS011;18276;45.520;11.018;2023-05-23T23:47:38;15.13;;;10.55;;
31674;SDS011;18276;45.520;11.018;2023-05-23T23:50:07;11.82;;;10.07;;
31674;SDS011;18276;45.520;11.018;2023-05-23T23:52:35;15.93;;;10.90;;
31674;SDS011;18276;45.520;11.018;2023-05-23T23:55:05;18.38;;;10.38;;
31674;SDS011;18276;45.520;11.018;2023-05-23T23:57:33;14.60;;;9.75;;
